sensor_id;sensor_type;location;lat;lon;timestamp;P1;durP1;ratioP1;P2;durP2;ratioP2
5882;SDS011;2967;51.488;6.618;2022-07-24T00:00:56;8.33;;;5.70;;
5882;SDS011;2967;51.488;6.618;2022-07-24T00:06:03;6.93;;;5.90;;
5882;SDS011;2967;51.488;6.618;2022-07-24T00:11:07;8.00;;;5.57;;
5882;SDS011;2967;51.488;6.618;2022-07-24T00:16:10;11.37;;;5.60;;
5882;SDS011;2967;51.488;6.618;2022-07-24T00:21:16;10.37;;;5.90;;
5882;SDS011;2967;51.488;6.618;2022-07-24T00:26:19;5.90;;;5.30;;
5882;SDS011;2967;51.488;6.618;2022-07-24T00:31:22;8.33;;;5.73;;
5882;SDS011;2967;51.488;6.618;2022-07-24T00:36:27;9.70;;;6.50;;
5882;SDS011;2967;51.488;6.618;2022-07-24T00:41:30;6.43;;;5.73;;
5882;SDS011;2967;51.488;6.618;2022-07-24T00:46:33;5.77;;;5.17;;
5882;SDS011;2967;51.488;6.618;2022-07-24T00:51:39;5.87;;;5.00;;
5882;SDS011;2967;51.488;6.618;2022-07-24T00:56:43;7.00;;;5.37;;
5882;SDS011;2967;51.488;6.618;2022-07-24T01:01:46;6.13;;;5.53;;
5882;SDS011;2967;51.488;6.618;2022-07-24T01:06:51;6.70;;;5.50;;
5882;SDS011;2967;51.488;6.618;2022-07-24T01:11:54;6.70;;;4.50;;
5882;SDS011;2967;51.488;6.618;2022-07-24T01:16:57;8.17;;;5.53;;
5882;SDS011;2967;51.488;6.618;2022-07-24T01:22:01;6.03;;;5.30;;
5882;SDS011;2967;51.488;6.618;2022-07-24T01:27:05;6.43;;;4.60;;
5882;SDS011;2967;51.488;6.618;2022-07-24T01:32:07;6.10;;;4.20;;
5882;SDS011;2967;51.488;6.618;2022-07-24T01:37:12;6.37;;;5.03;;
5882;SDS011;2967;51.488;6.618;2022-07-24T01:42:14;5.50;;;4.60;;
5882;SDS011;2967;51.488;6.618;2022-07-24T01:47:17;7.17;;;5.30;;
5882;SDS011;2967;51.488;6.618;2022-07-24T01:52:21;5.37;;;4.87;;
5882;SDS011;2967;51.488;6.618;2022-07-24T01:57:26;10.80;;;4.93;;
5882;SDS011;2967;51.488;6.618;2022-07-24T02:02:30;7.10;;;5.50;;
5882;SDS011;2967;51.488;6.618;2022-07-24T02:07:34;6.07;;;5.33;;
5882;SDS011;2967;51.488;6.618;2022-07-24T02:12:37;7.40;;;5.23;;
5882;SDS011;2967;51.488;6.618;2022-07-24T02:17:44;6.07;;;5.20;;
5882;SDS011;2967;51.488;6.618;2022-07-24T02:22:49;7.60;;;5.80;;
5882;SDS011;2967;51.488;6.618;2022-07-24T02:27:53;6.23;;;5.63;;
5882;SDS011;2967;51.488;6.618;2022-07-24T02:32:55;10.40;;;5.77;;
5882;SDS011;2967;51.488;6.618;2022-07-24T02:38:00;6.97;;;5.60;;
5882;SDS011;2967;51.488;6.618;2022-07-24T02:43:02;6.67;;;5.53;;
5882;SDS011;2967;51.488;6.618;2022-07-24T02:48:06;16.00;;;5.70;;
5882;SDS011;2967;51.488;6.618;2022-07-24T02:53:10;9.57;;;6.07;;
5882;SDS011;2967;51.488;6.618;2022-07-24T02:58:12;6.20;;;5.27;;
5882;SDS011;2967;51.488;6.618;2022-07-24T03:03:15;6.80;;;6.17;;
5882;SDS011;2967;51.488;6.618;2022-07-24T03:08:19;6.60;;;6.00;;
5882;SDS011;2967;51.488;6.618;2022-07-24T03:13:22;6.80;;;6.20;;
5882;SDS011;2967;51.488;6.618;2022-07-24T03:18:25;10.83;;;6.10;;
5882;SDS011;2967;51.488;6.618;2022-07-24T03:23:29;7.87;;;6.20;;
5882;SDS011;2967;51.488;6.618;2022-07-24T03:28:32;8.43;;;6.20;;
5882;SDS011;2967;51.488;6.618;2022-07-24T03:33:35;8.13;;;7.40;;
5882;SDS011;2967;51.488;6.618;2022-07-24T03:38:39;8.47;;;6.67;;
5882;SDS011;2967;51.488;6.618;2022-07-24T03:43:41;7.93;;;7.13;;
5882;SDS011;2967;51.488;6.618;2022-07-24T03:48:44;8.27;;;6.77;;
5882;SDS011;2967;51.488;6.618;2022-07-24T03:53:49;7.60;;;6.90;;
5882;SDS011;2967;51.488;6.618;2022-07-24T03:58:55;7.50;;;6.80;;
5882;SDS011;2967;51.488;6.618;2022-07-24T04:03:57;8.67;;;6.67;;
5882;SDS011;2967;51.488;6.618;2022-07-24T04:09:07;8.13;;;6.17;;
5882;SDS011;2967;51.488;6.618;2022-07-24T04:14:10;11.57;;;7.00;;
5882;SDS011;2967;51.488;6.618;2022-07-24T04:19:13;8.87;;;6.70;;
5882;SDS011;2967;51.488;6.618;2022-07-24T04:24:17;9.60;;;7.00;;
5882;SDS011;2967;51.488;6.618;2022-07-24T04:29:19;10.13;;;7.00;;
5882;SDS011;2967;51.488;6.618;2022-07-24T04:34:23;10.90;;;7.30;;
5882;SDS011;2967;51.488;6.618;2022-07-24T04:39:27;8.00;;;7.30;;
5882;SDS011;2967;51.488;6.618;2022-07-24T04:44:30;9.80;;;7.23;;
5882;SDS011;2967;51.488;6.618;2022-07-24T04:49:32;10.80;;;7.93;;
5882;SDS011;2967;51.488;6.618;2022-07-24T04:54:37;10.33;;;7.80;;
5882;SDS011;2967;51.488;6.618;2022-07-24T04:59:40;8.63;;;7.73;;
5882;SDS011;2967;51.488;6.618;2022-07-24T05:04:42;10.00;;;8.67;;
5882;SDS011;2967;51.488;6.618;2022-07-24T05:09:46;15.40;;;12.90;;
5882;SDS011;2967;51.488;6.618;2022-07-24T05:14:49;10.80;;;9.70;;
5882;SDS011;2967;51.488;6.618;2022-07-24T05:19:52;11.07;;;9.90;;
5882;SDS011;2967;51.488;6.618;2022-07-24T05:24:56;14.47;;;9.83;;
5882;SDS011;2967;51.488;6.618;2022-07-24T05:29:59;10.30;;;9.20;;
5882;SDS011;2967;51.488;6.618;2022-07-24T05:35:02;11.23;;;10.10;;
5882;SDS011;2967;51.488;6.618;2022-07-24T05:40:07;10.67;;;9.53;;
5882;SDS011;2967;51.488;6.618;2022-07-24T05:45:10;11.80;;;10.60;;
5882;SDS011;2967;51.488;6.618;2022-07-24T05:50:13;13.20;;;10.67;;
5882;SDS011;2967;51.488;6.618;2022-07-24T05:55:17;11.53;;;8.90;;
5882;SDS011;2967;51.488;6.618;2022-07-24T06:00:21;13.10;;;9.67;;
5882;SDS011;2967;51.488;6.618;2022-07-24T06:05:27;9.43;;;8.60;;
5882;SDS011;2967;51.488;6.618;2022-07-24T06:10:31;9.93;;;8.17;;
5882;SDS011;2967;51.488;6.618;2022-07-24T06:15:34;9.10;;;8.10;;
5882;SDS011;2967;51.488;6.618;2022-07-24T06:20:41;11.50;;;8.87;;
5882;SDS011;2967;51.488;6.618;2022-07-24T06:25:45;14.63;;;9.47;;
5882;SDS011;2967;51.488;6.618;2022-07-24T06:30:47;8.23;;;7.30;;
5882;SDS011;2967;51.488;6.618;2022-07-24T06:35:51;10.43;;;8.50;;
5882;SDS011;2967;51.488;6.618;2022-07-24T06:40:55;9.43;;;8.50;;
5882;SDS011;2967;51.488;6.618;2022-07-24T06:46:00;9.33;;;8.33;;
5882;SDS011;2967;51.488;6.618;2022-07-24T06:51:03;8.50;;;7.70;;
5882;SDS011;2967;51.488;6.618;2022-07-24T06:56:08;12.80;;;8.47;;
5882;SDS011;2967;51.488;6.618;2022-07-24T07:01:10;8.40;;;7.60;;
5882;SDS011;2967;51.488;6.618;2022-07-24T07:06:13;8.23;;;7.40;;
5882;SDS011;2967;51.488;6.618;2022-07-24T07:11:19;14.37;;;8.57;;
5882;SDS011;2967;51.488;6.618;2022-07-24T07:16:22;13.17;;;9.23;;
5882;SDS011;2967;51.488;6.618;2022-07-24T07:21:25;19.83;;;16.20;;
5882;SDS011;2967;51.488;6.618;2022-07-24T07:26:29;17.47;;;12.00;;
5882;SDS011;2967;51.488;6.618;2022-07-24T07:31:32;17.73;;;12.57;;
5882;SDS011;2967;51.488;6.618;2022-07-24T07:36:35;17.43;;;12.77;;
5882;SDS011;2967;51.488;6.618;2022-07-24T07:41:39;16.90;;;12.33;;
5882;SDS011;2967;51.488;6.618;2022-07-24T07:46:42;18.53;;;15.67;;
5882;SDS011;2967;51.488;6.618;2022-07-24T07:51:45;19.10;;;13.83;;
5882;SDS011;2967;51.488;6.618;2022-07-24T07:56:53;20.63;;;15.53;;
5882;SDS011;2967;51.488;6.618;2022-07-24T08:01:56;18.70;;;14.10;;
5882;SDS011;2967;51.488;6.618;2022-07-24T08:06:59;18.87;;;14.63;;
5882;SDS011;2967;51.488;6.618;2022-07-24T08:12:04;18.77;;;16.20;;
5882;SDS011;2967;51.488;6.618;2022-07-24T08:17:07;15.87;;;12.87;;
5882;SDS011;2967;51.488;6.618;2022-07-24T08:22:09;15.47;;;13.63;;
5882;SDS011;2967;51.488;6.618;2022-07-24T08:27:14;16.60;;;12.90;;
5882;SDS011;2967;51.488;6.618;2022-07-24T08:32:16;19.03;;;13.60;;
5882;SDS011;2967;51.488;6.618;2022-07-24T08:37:19;16.23;;;13.43;;
5882;SDS011;2967;51.488;6.618;2022-07-24T08:42:24;12.83;;;10.80;;
5882;SDS011;2967;51.488;6.618;2022-07-24T08:47:27;20.30;;;14.40;;
5882;SDS011;2967;51.488;6.618;2022-07-24T08:52:33;20.37;;;14.83;;
5882;SDS011;2967;51.488;6.618;2022-07-24T08:57:46;18.10;;;15.37;;
5882;SDS011;2967;51.488;6.618;2022-07-24T09:02:49;14.20;;;10.63;;
5882;SDS011;2967;51.488;6.618;2022-07-24T09:08:05;18.53;;;11.50;;
5882;SDS011;2967;51.488;6.618;2022-07-24T09:13:14;14.87;;;12.37;;
5882;SDS011;2967;51.488;6.618;2022-07-24T09:18:28;10.67;;;9.57;;
5882;SDS011;2967;51.488;6.618;2022-07-24T09:23:36;12.60;;;9.40;;
5882;SDS011;2967;51.488;6.618;2022-07-24T09:28:47;14.43;;;10.27;;
5882;SDS011;2967;51.488;6.618;2022-07-24T09:33:50;15.97;;;8.60;;
5882;SDS011;2967;51.488;6.618;2022-07-24T09:38:53;12.90;;;9.80;;
5882;SDS011;2967;51.488;6.618;2022-07-24T09:44:00;12.00;;;10.17;;
5882;SDS011;2967;51.488;6.618;2022-07-24T09:49:18;10.83;;;9.50;;
5882;SDS011;2967;51.488;6.618;2022-07-24T09:54:27;8.90;;;7.80;;
5882;SDS011;2967;51.488;6.618;2022-07-24T09:59:34;9.73;;;8.33;;
5882;SDS011;2967;51.488;6.618;2022-07-24T10:04:40;9.70;;;8.30;;
5882;SDS011;2967;51.488;6.618;2022-07-24T10:09:44;9.60;;;8.30;;
5882;SDS011;2967;51.488;6.618;2022-07-24T10:14:50;11.87;;;9.17;;
5882;SDS011;2967;51.488;6.618;2022-07-24T10:19:54;10.37;;;7.77;;
5882;SDS011;2967;51.488;6.618;2022-07-24T10:25:21;9.77;;;7.50;;
5882;SDS011;2967;51.488;6.618;2022-07-24T10:30:29;17.60;;;8.30;;
5882;SDS011;2967;51.488;6.618;2022-07-24T10:35:32;10.43;;;7.30;;
5882;SDS011;2967;51.488;6.618;2022-07-24T10:40:39;13.03;;;8.23;;
5882;SDS011;2967;51.488;6.618;2022-07-24T10:51:14;8.27;;;6.77;;
5882;SDS011;2967;51.488;6.618;2022-07-24T10:56:18;10.53;;;7.33;;
5882;SDS011;2967;51.488;6.618;2022-07-24T11:01:32;12.50;;;7.40;;
5882;SDS011;2967;51.488;6.618;2022-07-24T11:06:37;8.60;;;7.40;;
5882;SDS011;2967;51.488;6.618;2022-07-24T11:11:45;11.93;;;8.57;;
5882;SDS011;2967;51.488;6.618;2022-07-24T11:22:44;7.33;;;6.63;;
5882;SDS011;2967;51.488;6.618;2022-07-24T11:27:54;7.57;;;6.80;;
5882;SDS011;2967;51.488;6.618;2022-07-24T11:33:00;8.20;;;6.80;;
5882;SDS011;2967;51.488;6.618;2022-07-24T11:38:04;8.97;;;6.20;;
5882;SDS011;2967;51.488;6.618;2022-07-24T11:43:07;9.20;;;6.17;;
5882;SDS011;2967;51.488;6.618;2022-07-24T11:48:19;6.77;;;6.00;;
5882;SDS011;2967;51.488;6.618;2022-07-24T11:53:29;7.67;;;6.87;;
5882;SDS011;2967;51.488;6.618;2022-07-24T11:58:36;8.60;;;6.50;;
5882;SDS011;2967;51.488;6.618;2022-07-24T12:03:48;8.77;;;5.90;;
5882;SDS011;2967;51.488;6.618;2022-07-24T12:08:56;9.80;;;6.50;;
5882;SDS011;2967;51.488;6.618;2022-07-24T12:13:59;10.57;;;6.50;;
5882;SDS011;2967;51.488;6.618;2022-07-24T12:19:14;7.90;;;6.07;;
5882;SDS011;2967;51.488;6.618;2022-07-24T12:24:18;5.50;;;5.00;;
5882;SDS011;2967;51.488;6.618;2022-07-24T12:29:23;6.23;;;4.70;;
5882;SDS011;2967;51.488;6.618;2022-07-24T12:34:40;5.30;;;4.77;;
5882;SDS011;2967;51.488;6.618;2022-07-24T12:40:04;7.90;;;5.37;;
5882;SDS011;2967;51.488;6.618;2022-07-24T12:45:08;11.40;;;4.10;;
5882;SDS011;2967;51.488;6.618;2022-07-24T12:50:14;6.10;;;4.53;;
5882;SDS011;2967;51.488;6.618;2022-07-24T12:55:37;7.43;;;4.80;;
5882;SDS011;2967;51.488;6.618;2022-07-24T13:00:40;4.73;;;4.40;;
5882;SDS011;2967;51.488;6.618;2022-07-24T13:05:59;5.17;;;4.73;;
5882;SDS011;2967;51.488;6.618;2022-07-24T13:11:02;5.60;;;5.10;;
5882;SDS011;2967;51.488;6.618;2022-07-24T13:16:06;5.60;;;5.10;;
5882;SDS011;2967;51.488;6.618;2022-07-24T13:21:10;6.20;;;4.77;;
5882;SDS011;2967;51.488;6.618;2022-07-24T13:26:13;6.93;;;5.03;;
5882;SDS011;2967;51.488;6.618;2022-07-24T13:31:16;5.33;;;4.60;;
5882;SDS011;2967;51.488;6.618;2022-07-24T13:36:23;11.30;;;5.20;;
5882;SDS011;2967;51.488;6.618;2022-07-24T13:41:27;5.57;;;4.20;;
5882;SDS011;2967;51.488;6.618;2022-07-24T13:46:30;5.63;;;4.40;;
5882;SDS011;2967;51.488;6.618;2022-07-24T13:51:35;5.23;;;4.73;;
5882;SDS011;2967;51.488;6.618;2022-07-24T13:56:40;4.93;;;4.37;;
5882;SDS011;2967;51.488;6.618;2022-07-24T14:01:45;4.50;;;3.83;;
5882;SDS011;2967;51.488;6.618;2022-07-24T14:06:52;4.80;;;4.40;;
5882;SDS011;2967;51.488;6.618;2022-07-24T14:11:55;5.43;;;4.80;;
5882;SDS011;2967;51.488;6.618;2022-07-24T14:16:59;5.20;;;4.20;;
5882;SDS011;2967;51.488;6.618;2022-07-24T14:22:03;4.50;;;4.10;;
5882;SDS011;2967;51.488;6.618;2022-07-24T14:27:07;4.40;;;4.00;;
5882;SDS011;2967;51.488;6.618;2022-07-24T14:32:09;5.07;;;3.80;;
5882;SDS011;2967;51.488;6.618;2022-07-24T14:37:13;4.33;;;4.03;;
5882;SDS011;2967;51.488;6.618;2022-07-24T14:42:19;4.87;;;4.43;;
5882;SDS011;2967;51.488;6.618;2022-07-24T14:47:23;4.70;;;4.20;;
5882;SDS011;2967;51.488;6.618;2022-07-24T14:52:27;8.83;;;4.53;;
5882;SDS011;2967;51.488;6.618;2022-07-24T14:57:30;4.33;;;3.97;;
5882;SDS011;2967;51.488;6.618;2022-07-24T15:02:33;4.70;;;4.20;;
5882;SDS011;2967;51.488;6.618;2022-07-24T15:07:37;7.40;;;4.80;;
5882;SDS011;2967;51.488;6.618;2022-07-24T15:12:40;6.63;;;5.00;;
5882;SDS011;2967;51.488;6.618;2022-07-24T15:17:43;4.60;;;4.20;;
5882;SDS011;2967;51.488;6.618;2022-07-24T15:22:47;5.60;;;3.90;;
5882;SDS011;2967;51.488;6.618;2022-07-24T15:27:50;5.00;;;4.60;;
5882;SDS011;2967;51.488;6.618;2022-07-24T15:32:53;5.10;;;4.70;;
5882;SDS011;2967;51.488;6.618;2022-07-24T15:37:57;6.30;;;5.20;;
5882;SDS011;2967;51.488;6.618;2022-07-24T15:43:00;6.67;;;5.00;;
5882;SDS011;2967;51.488;6.618;2022-07-24T15:48:04;5.10;;;4.60;;
5882;SDS011;2967;51.488;6.618;2022-07-24T15:53:08;5.90;;;5.40;;
5882;SDS011;2967;51.488;6.618;2022-07-24T15:58:11;8.03;;;4.90;;
5882;SDS011;2967;51.488;6.618;2022-07-24T16:03:14;10.50;;;4.87;;
5882;SDS011;2967;51.488;6.618;2022-07-24T16:08:19;13.83;;;10.33;;
5882;SDS011;2967;51.488;6.618;2022-07-24T16:13:22;5.27;;;4.13;;
5882;SDS011;2967;51.488;6.618;2022-07-24T16:18:25;12.87;;;5.63;;
5882;SDS011;2967;51.488;6.618;2022-07-24T16:23:30;8.20;;;5.50;;
5882;SDS011;2967;51.488;6.618;2022-07-24T16:28:34;7.93;;;5.30;;
5882;SDS011;2967;51.488;6.618;2022-07-24T16:33:37;7.23;;;5.37;;
5882;SDS011;2967;51.488;6.618;2022-07-24T16:38:44;7.87;;;4.93;;
5882;SDS011;2967;51.488;6.618;2022-07-24T16:43:48;5.67;;;4.90;;
5882;SDS011;2967;51.488;6.618;2022-07-24T16:48:51;6.27;;;5.00;;
5882;SDS011;2967;51.488;6.618;2022-07-24T16:53:56;5.93;;;5.30;;
5882;SDS011;2967;51.488;6.618;2022-07-24T16:59:00;6.27;;;5.60;;
5882;SDS011;2967;51.488;6.618;2022-07-24T17:04:04;6.90;;;5.00;;
5882;SDS011;2967;51.488;6.618;2022-07-24T17:09:09;5.63;;;4.60;;
5882;SDS011;2967;51.488;6.618;2022-07-24T17:14:12;15.30;;;10.00;;
5882;SDS011;2967;51.488;6.618;2022-07-24T17:19:15;6.53;;;5.77;;
5882;SDS011;2967;51.488;6.618;2022-07-24T17:24:19;6.47;;;5.87;;
5882;SDS011;2967;51.488;6.618;2022-07-24T17:29:22;6.00;;;5.37;;
5882;SDS011;2967;51.488;6.618;2022-07-24T17:34:26;5.90;;;5.40;;
5882;SDS011;2967;51.488;6.618;2022-07-24T17:39:31;9.17;;;8.13;;
5882;SDS011;2967;51.488;6.618;2022-07-24T17:44:33;7.70;;;7.00;;
5882;SDS011;2967;51.488;6.618;2022-07-24T17:49:36;6.93;;;6.33;;
5882;SDS011;2967;51.488;6.618;2022-07-24T17:54:41;6.80;;;6.10;;
5882;SDS011;2967;51.488;6.618;2022-07-24T17:59:44;7.00;;;6.30;;
5882;SDS011;2967;51.488;6.618;2022-07-24T18:04:47;8.83;;;5.13;;
5882;SDS011;2967;51.488;6.618;2022-07-24T18:09:52;6.23;;;5.30;;
5882;SDS011;2967;51.488;6.618;2022-07-24T18:14:55;11.57;;;8.90;;
5882;SDS011;2967;51.488;6.618;2022-07-24T18:19:58;10.77;;;9.70;;
5882;SDS011;2967;51.488;6.618;2022-07-24T18:25:04;9.10;;;8.20;;
5882;SDS011;2967;51.488;6.618;2022-07-24T18:30:07;7.37;;;6.67;;
5882;SDS011;2967;51.488;6.618;2022-07-24T18:35:10;7.50;;;5.93;;
5882;SDS011;2967;51.488;6.618;2022-07-24T18:40:16;11.53;;;6.47;;
5882;SDS011;2967;51.488;6.618;2022-07-24T18:45:19;7.40;;;6.13;;
5882;SDS011;2967;51.488;6.618;2022-07-24T18:50:23;7.13;;;6.43;;
5882;SDS011;2967;51.488;6.618;2022-07-24T18:55:27;7.20;;;5.67;;
5882;SDS011;2967;51.488;6.618;2022-07-24T19:00:30;7.27;;;5.50;;
5882;SDS011;2967;51.488;6.618;2022-07-24T19:05:33;6.20;;;5.60;;
5882;SDS011;2967;51.488;6.618;2022-07-24T19:10:38;7.60;;;5.80;;
5882;SDS011;2967;51.488;6.618;2022-07-24T19:15:41;5.53;;;4.87;;
5882;SDS011;2967;51.488;6.618;2022-07-24T19:20:43;6.83;;;6.03;;
5882;SDS011;2967;51.488;6.618;2022-07-24T19:25:47;6.50;;;5.90;;
5882;SDS011;2967;51.488;6.618;2022-07-24T19:30:50;8.57;;;6.20;;
5882;SDS011;2967;51.488;6.618;2022-07-24T19:35:53;13.57;;;11.30;;
5882;SDS011;2967;51.488;6.618;2022-07-24T19:40:57;10.47;;;6.20;;
5882;SDS011;2967;51.488;6.618;2022-07-24T19:46:01;7.77;;;6.00;;
5882;SDS011;2967;51.488;6.618;2022-07-24T19:51:04;7.53;;;6.40;;
5882;SDS011;2967;51.488;6.618;2022-07-24T19:56:28;6.10;;;5.53;;
5882;SDS011;2967;51.488;6.618;2022-07-24T20:01:34;6.73;;;5.40;;
5882;SDS011;2967;51.488;6.618;2022-07-24T20:06:37;13.43;;;8.53;;
5882;SDS011;2967;51.488;6.618;2022-07-24T20:11:42;13.70;;;9.17;;
5882;SDS011;2967;51.488;6.618;2022-07-24T20:16:45;8.17;;;7.00;;
5882;SDS011;2967;51.488;6.618;2022-07-24T20:21:49;9.30;;;8.10;;
5882;SDS011;2967;51.488;6.618;2022-07-24T20:26:53;7.60;;;6.13;;
5882;SDS011;2967;51.488;6.618;2022-07-24T20:31:56;10.03;;;6.30;;
5882;SDS011;2967;51.488;6.618;2022-07-24T20:36:59;12.67;;;7.70;;
5882;SDS011;2967;51.488;6.618;2022-07-24T20:42:03;7.27;;;6.20;;
5882;SDS011;2967;51.488;6.618;2022-07-24T20:47:06;10.10;;;7.20;;
5882;SDS011;2967;51.488;6.618;2022-07-24T20:52:09;9.10;;;6.20;;
5882;SDS011;2967;51.488;6.618;2022-07-24T20:57:14;7.37;;;6.27;;
5882;SDS011;2967;51.488;6.618;2022-07-24T21:02:17;9.47;;;6.90;;
5882;SDS011;2967;51.488;6.618;2022-07-24T21:07:20;9.23;;;6.40;;
5882;SDS011;2967;51.488;6.618;2022-07-24T21:12:25;8.57;;;7.30;;
5882;SDS011;2967;51.488;6.618;2022-07-24T21:17:28;11.33;;;6.40;;
5882;SDS011;2967;51.488;6.618;2022-07-24T21:22:31;8.07;;;6.80;;
5882;SDS011;2967;51.488;6.618;2022-07-24T21:27:35;7.47;;;6.67;;
5882;SDS011;2967;51.488;6.618;2022-07-24T21:32:38;9.60;;;6.23;;
5882;SDS011;2967;51.488;6.618;2022-07-24T21:37:44;7.87;;;7.07;;
5882;SDS011;2967;51.488;6.618;2022-07-24T21:42:48;10.53;;;7.07;;
5882;SDS011;2967;51.488;6.618;2022-07-24T21:47:51;10.73;;;6.87;;
5882;SDS011;2967;51.488;6.618;2022-07-24T21:52:54;8.73;;;6.80;;
5882;SDS011;2967;51.488;6.618;2022-07-24T21:58:02;11.03;;;6.93;;
5882;SDS011;2967;51.488;6.618;2022-07-24T22:03:07;9.20;;;6.53;;
5882;SDS011;2967;51.488;6.618;2022-07-24T22:08:11;8.07;;;7.33;;
5882;SDS011;2967;51.488;6.618;2022-07-24T22:13:16;7.43;;;6.63;;
5882;SDS011;2967;51.488;6.618;2022-07-24T22:18:21;9.03;;;7.10;;
5882;SDS011;2967;51.488;6.618;2022-07-24T22:23:24;12.90;;;6.23;;
5882;SDS011;2967;51.488;6.618;2022-07-24T22:28:31;7.67;;;6.70;;
5882;SDS011;2967;51.488;6.618;2022-07-24T22:33:36;7.43;;;6.77;;
5882;SDS011;2967;51.488;6.618;2022-07-24T22:38:40;6.87;;;6.27;;
5882;SDS011;2967;51.488;6.618;2022-07-24T22:43:48;11.80;;;6.77;;
5882;SDS011;2967;51.488;6.618;2022-07-24T22:48:52;11.23;;;6.63;;
5882;SDS011;2967;51.488;6.618;2022-07-24T22:53:56;8.50;;;7.67;;
5882;SDS011;2967;51.488;6.618;2022-07-24T22:59:02;9.20;;;7.60;;
5882;SDS011;2967;51.488;6.618;2022-07-24T23:04:06;8.00;;;7.33;;
5882;SDS011;2967;51.488;6.618;2022-07-24T23:09:09;9.87;;;8.83;;
5882;SDS011;2967;51.488;6.618;2022-07-24T23:14:13;10.13;;;7.77;;
5882;SDS011;2967;51.488;6.618;2022-07-24T23:19:16;9.17;;;8.20;;
5882;SDS011;2967;51.488;6.618;2022-07-24T23:24:19;9.40;;;8.60;;
5882;SDS011;2967;51.488;6.618;2022-07-24T23:29:24;10.30;;;9.30;;
5882;SDS011;2967;51.488;6.618;2022-07-24T23:34:27;11.00;;;8.83;;
5882;SDS011;2967;51.488;6.618;2022-07-24T23:39:30;8.07;;;7.27;;
5882;SDS011;2967;51.488;6.618;2022-07-24T23:44:35;7.90;;;7.10;;
5882;SDS011;2967;51.488;6.618;2022-07-24T23:49:38;10.27;;;8.10;;
5882;SDS011;2967;51.488;6.618;2022-07-24T23:54:40;12.00;;;9.03;;
5882;SDS011;2967;51.488;6.618;2022-07-24T23:59:44;9.37;;;7.60;;
